sensor_id;sensor_type;location;lat;lon;timestamp;temperature;humidity
75517;DHT22;64097;52.548;13.406;2023-06-22T06:01:05;26.50;50.50
75517;DHT22;64097;52.548;13.406;2023-06-22T06:03:31;26.60;50.60
75517;DHT22;64097;52.548;13.406;2023-06-22T06:05:56;26.60;50.50
75517;DHT22;64097;52.548;13.406;2023-06-22T06:08:22;26.60;50.40
75517;DHT22;64097;52.548;13.406;2023-06-22T06:10:48;26.60;50.50
75517;DHT22;64097;52.548;13.406;2023-06-22T06:13:14;26.70;50.60
75517;DHT22;64097;52.548;13.406;2023-06-22T06:15:39;26.60;50.50
75517;DHT22;64097;52.548;13.406;2023-06-22T06:18:05;26.70;50.40
75517;DHT22;64097;52.548;13.406;2023-06-22T06:20:32;26.70;50.30
75517;DHT22;64097;52.548;13.406;2023-06-22T06:22:58;26.70;50.40
75517;DHT22;64097;52.548;13.406;2023-06-22T06:25:24;26.70;50.40
75517;DHT22;64097;52.548;13.406;2023-06-22T06:27:51;26.70;50.40
75517;DHT22;64097;52.548;13.406;2023-06-22T06:30:18;26.80;50.70
75517;DHT22;64097;52.548;13.406;2023-06-22T06:32:44;26.80;50.70
75517;DHT22;64097;52.548;13.406;2023-06-22T06:35:14;26.80;50.80
75517;DHT22;64097;52.548;13.406;2023-06-22T06:37:44;26.90;50.20
75517;DHT22;64097;52.548;13.406;2023-06-22T06:40:11;26.90;50.00
75517;DHT22;64097;52.548;13.406;2023-06-22T06:42:41;26.90;49.40
75517;DHT22;64097;52.548;13.406;2023-06-22T06:45:31;27.00;48.80
75517;DHT22;64097;52.548;13.406;2023-06-22T06:47:58;27.00;48.80
75517;DHT22;64097;52.548;13.406;2023-06-22T06:50:25;27.00;48.70
75517;DHT22;64097;52.548;13.406;2023-06-22T06:52:51;27.10;48.60
75517;DHT22;64097;52.548;13.406;2023-06-22T06:55:17;27.10;48.60
75517;DHT22;64097;52.548;13.406;2023-06-22T06:57:44;27.20;48.50
75517;DHT22;64097;52.548;13.406;2023-06-22T07:00:12;27.20;48.10
75517;DHT22;64097;52.548;13.406;2023-06-22T07:02:44;27.20;47.70
75517;DHT22;64097;52.548;13.406;2023-06-22T07:05:11;27.20;47.60
75517;DHT22;64097;52.548;13.406;2023-06-22T07:07:37;27.20;47.60
75517;DHT22;64097;52.548;13.406;2023-06-22T07:10:03;27.30;47.20
75517;DHT22;64097;52.548;13.406;2023-06-22T07:12:29;27.30;47.30
75517;DHT22;64097;52.548;13.406;2023-06-22T07:15:02;27.40;47.20
75517;DHT22;64097;52.548;13.406;2023-06-22T07:17:28;27.40;47.20
75517;DHT22;64097;52.548;13.406;2023-06-22T07:19:53;27.40;47.20
75517;DHT22;64097;52.548;13.406;2023-06-22T07:22:19;27.40;47.00
75517;DHT22;64097;52.548;13.406;2023-06-22T07:24:45;27.60;46.90
75517;DHT22;64097;52.548;13.406;2023-06-22T07:27:11;27.60;46.70
75517;DHT22;64097;52.548;13.406;2023-06-22T07:29:38;27.60;47.00
75517;DHT22;64097;52.548;13.406;2023-06-22T07:32:06;27.70;46.80
75517;DHT22;64097;52.548;13.406;2023-06-22T07:34:32;27.80;46.70
75517;DHT22;64097;52.548;13.406;2023-06-22T07:36:59;27.80;45.90
75517;DHT22;64097;52.548;13.406;2023-06-22T07:39:24;27.90;45.30
75517;DHT22;64097;52.548;13.406;2023-06-22T07:41:52;27.90;45.30
75517;DHT22;64097;52.548;13.406;2023-06-22T07:44:18;28.00;45.40
75517;DHT22;64097;52.548;13.406;2023-06-22T07:46:43;28.00;45.50
75517;DHT22;64097;52.548;13.406;2023-06-22T07:49:09;28.10;44.90
75517;DHT22;64097;52.548;13.406;2023-06-22T07:51:35;28.10;44.20
75517;DHT22;64097;52.548;13.406;2023-06-22T07:54:01;28.20;43.50
75517;DHT22;64097;52.548;13.406;2023-06-22T07:56:26;28.30;42.90
75517;DHT22;64097;52.548;13.406;2023-06-22T07:58:52;28.30;42.60
75517;DHT22;64097;52.548;13.406;2023-06-22T08:01:19;28.40;41.80
75517;DHT22;64097;52.548;13.406;2023-06-22T08:03:48;28.40;41.90
75517;DHT22;64097;52.548;13.406;2023-06-22T08:06:14;28.40;41.70
75517;DHT22;64097;52.548;13.406;2023-06-22T08:08:40;28.50;41.70
75517;DHT22;64097;52.548;13.406;2023-06-22T08:11:06;28.50;41.60
75517;DHT22;64097;52.548;13.406;2023-06-22T08:13:31;28.50;41.90
75517;DHT22;64097;52.548;13.406;2023-06-22T08:15:57;28.50;42.10
75517;DHT22;64097;52.548;13.406;2023-06-22T08:18:23;28.60;42.10
75517;DHT22;64097;52.548;13.406;2023-06-22T08:20:49;28.60;42.30
75517;DHT22;64097;52.548;13.406;2023-06-22T08:23:15;28.60;42.10
75517;DHT22;64097;52.548;13.406;2023-06-22T08:25:41;28.70;42.20
75517;DHT22;64097;52.548;13.406;2023-06-22T08:28:06;28.70;42.20
75517;DHT22;64097;52.548;13.406;2023-06-22T08:30:32;28.80;42.20
75517;DHT22;64097;52.548;13.406;2023-06-22T08:32:58;28.80;41.70
75517;DHT22;64097;52.548;13.406;2023-06-22T08:35:24;28.80;41.80
75517;DHT22;64097;52.548;13.406;2023-06-22T08:37:50;28.80;41.90
75517;DHT22;64097;52.548;13.406;2023-06-22T08:40:20;28.80;41.60
75517;DHT22;64097;52.548;13.406;2023-06-22T08:42:46;28.80;41.20
75517;DHT22;64097;52.548;13.406;2023-06-22T08:45:13;28.80;39.90
75517;DHT22;64097;52.548;13.406;2023-06-22T08:47:40;28.70;40.10
75517;DHT22;64097;52.548;13.406;2023-06-22T08:50:10;28.70;39.90
75517;DHT22;64097;52.548;13.406;2023-06-22T08:52:37;28.70;40.50
75517;DHT22;64097;52.548;13.406;2023-06-22T08:55:04;28.70;40.80
75517;DHT22;64097;52.548;13.406;2023-06-22T08:57:30;28.70;40.80
75517;DHT22;64097;52.548;13.406;2023-06-22T08:59:58;28.70;41.20
75517;DHT22;64097;52.548;13.406;2023-06-22T09:02:27;28.80;41.60
75517;DHT22;64097;52.548;13.406;2023-06-22T09:04:57;28.80;41.70
75517;DHT22;64097;52.548;13.406;2023-06-22T09:07:24;28.90;41.60
75517;DHT22;64097;52.548;13.406;2023-06-22T09:09:51;28.90;41.70
75517;DHT22;64097;52.548;13.406;2023-06-22T09:12:18;29.00;41.60
75517;DHT22;64097;52.548;13.406;2023-06-22T09:14:45;29.00;41.70
75517;DHT22;64097;52.548;13.406;2023-06-22T09:17:13;29.00;41.50
75517;DHT22;64097;52.548;13.406;2023-06-22T09:19:38;29.10;41.40
75517;DHT22;64097;52.548;13.406;2023-06-22T09:22:04;29.10;41.60
75517;DHT22;64097;52.548;13.406;2023-06-22T09:24:32;29.20;41.10
75517;DHT22;64097;52.548;13.406;2023-06-22T09:26:57;29.20;41.10
75517;DHT22;64097;52.548;13.406;2023-06-22T09:29:23;29.20;40.40
75517;DHT22;64097;52.548;13.406;2023-06-22T09:31:49;29.30;40.30
75517;DHT22;64097;52.548;13.406;2023-06-22T09:34:14;29.40;40.30
75517;DHT22;64097;52.548;13.406;2023-06-22T09:36:41;29.40;39.70
75517;DHT22;64097;52.548;13.406;2023-06-22T09:39:07;29.40;39.70
75517;DHT22;64097;52.548;13.406;2023-06-22T09:41:32;29.40;39.80
75517;DHT22;64097;52.548;13.406;2023-06-22T09:43:58;29.50;39.70
75517;DHT22;64097;52.548;13.406;2023-06-22T09:46:23;29.50;39.70
75517;DHT22;64097;52.548;13.406;2023-06-22T09:48:53;29.50;39.30
75517;DHT22;64097;52.548;13.406;2023-06-22T09:51:19;29.50;39.60
75517;DHT22;64097;52.548;13.406;2023-06-22T09:53:47;29.50;39.20
75517;DHT22;64097;52.548;13.406;2023-06-22T09:56:13;29.50;39.20
75517;DHT22;64097;52.548;13.406;2023-06-22T09:58:43;29.50;39.10
75517;DHT22;64097;52.548;13.406;2023-06-22T10:01:10;29.50;39.20
75517;DHT22;64097;52.548;13.406;2023-06-22T10:03:36;29.50;39.30
75517;DHT22;64097;52.548;13.406;2023-06-22T10:06:03;29.50;39.30
75517;DHT22;64097;52.548;13.406;2023-06-22T10:08:28;29.50;39.00
75517;DHT22;64097;52.548;13.406;2023-06-22T10:10:54;29.50;39.40
75517;DHT22;64097;52.548;13.406;2023-06-22T10:13:20;29.50;39.40
75517;DHT22;64097;52.548;13.406;2023-06-22T10:15:46;29.50;39.30
75517;DHT22;64097;52.548;13.406;2023-06-22T10:18:18;29.60;39.50
75517;DHT22;64097;52.548;13.406;2023-06-22T10:20:48;29.60;39.90
75517;DHT22;64097;52.548;13.406;2023-06-22T10:23:14;29.60;39.60
75517;DHT22;64097;52.548;13.406;2023-06-22T10:25:40;29.60;39.80
75517;DHT22;64097;52.548;13.406;2023-06-22T10:28:05;29.60;39.80
75517;DHT22;64097;52.548;13.406;2023-06-22T10:30:31;29.70;39.90
75517;DHT22;64097;52.548;13.406;2023-06-22T10:32:57;29.70;39.90
75517;DHT22;64097;52.548;13.406;2023-06-22T10:35:22;29.70;39.80
75517;DHT22;64097;52.548;13.406;2023-06-22T10:37:48;29.70;39.90
75517;DHT22;64097;52.548;13.406;2023-06-22T10:40:16;29.80;40.10
75517;DHT22;64097;52.548;13.406;2023-06-22T10:42:42;29.80;39.90
75517;DHT22;64097;52.548;13.406;2023-06-22T10:45:08;29.80;40.00
75517;DHT22;64097;52.548;13.406;2023-06-22T10:47:34;29.90;40.20
75517;DHT22;64097;52.548;13.406;2023-06-22T10:50:01;29.90;40.50
75517;DHT22;64097;52.548;13.406;2023-06-22T10:52:27;29.90;39.80
75517;DHT22;64097;52.548;13.406;2023-06-22T10:54:53;30.00;39.80
75517;DHT22;64097;52.548;13.406;2023-06-22T10:57:19;30.00;39.60
75517;DHT22;64097;52.548;13.406;2023-06-22T10:59:44;30.00;39.30
75517;DHT22;64097;52.548;13.406;2023-06-22T11:02:10;30.00;39.00
75517;DHT22;64097;52.548;13.406;2023-06-22T11:04:36;30.00;39.00
75517;DHT22;64097;52.548;13.406;2023-06-22T11:07:02;30.00;39.20
75517;DHT22;64097;52.548;13.406;2023-06-22T11:09:27;30.00;38.80
75517;DHT22;64097;52.548;13.406;2023-06-22T11:11:53;29.90;38.80
75517;DHT22;64097;52.548;13.406;2023-06-22T11:14:19;29.90;38.80
75517;DHT22;64097;52.548;13.406;2023-06-22T11:16:45;29.90;39.10
75517;DHT22;64097;52.548;13.406;2023-06-22T11:19:12;29.90;39.20
75517;DHT22;64097;52.548;13.406;2023-06-22T11:21:38;30.00;39.20
75517;DHT22;64097;52.548;13.406;2023-06-22T11:24:04;30.00;39.10
75517;DHT22;64097;52.548;13.406;2023-06-22T11:26:30;30.00;39.10
75517;DHT22;64097;52.548;13.406;2023-06-22T11:28:57;30.00;39.30
75517;DHT22;64097;52.548;13.406;2023-06-22T11:31:23;30.00;38.90
75517;DHT22;64097;52.548;13.406;2023-06-22T11:33:49;30.10;38.70
75517;DHT22;64097;52.548;13.406;2023-06-22T11:36:15;30.20;38.60
75517;DHT22;64097;52.548;13.406;2023-06-22T11:38:42;30.20;38.30
75517;DHT22;64097;52.548;13.406;2023-06-22T11:41:09;30.20;37.90
75517;DHT22;64097;52.548;13.406;2023-06-22T11:43:35;30.20;38.20
75517;DHT22;64097;52.548;13.406;2023-06-22T11:46:06;30.20;38.30
75517;DHT22;64097;52.548;13.406;2023-06-22T11:48:32;30.20;38.30
75517;DHT22;64097;52.548;13.406;2023-06-22T11:50:58;30.20;38.30
75517;DHT22;64097;52.548;13.406;2023-06-22T11:53:25;30.20;38.30
75517;DHT22;64097;52.548;13.406;2023-06-22T11:55:52;30.20;38.20
75517;DHT22;64097;52.548;13.406;2023-06-22T11:58:19;30.30;38.30
75517;DHT22;64097;52.548;13.406;2023-06-22T12:00:45;30.30;38.50
75517;DHT22;64097;52.548;13.406;2023-06-22T12:03:11;30.30;38.30
75517;DHT22;64097;52.548;13.406;2023-06-22T12:05:38;30.30;38.10
75517;DHT22;64097;52.548;13.406;2023-06-22T12:08:04;30.40;38.20
75517;DHT22;64097;52.548;13.406;2023-06-22T12:10:30;30.40;38.10
75517;DHT22;64097;52.548;13.406;2023-06-22T12:12:56;30.40;37.70
75517;DHT22;64097;52.548;13.406;2023-06-22T12:15:23;30.40;37.80
75517;DHT22;64097;52.548;13.406;2023-06-22T12:17:49;30.50;38.10
75517;DHT22;64097;52.548;13.406;2023-06-22T12:20:15;30.50;37.70
75517;DHT22;64097;52.548;13.406;2023-06-22T12:22:41;30.50;37.50
75517;DHT22;64097;52.548;13.406;2023-06-22T12:25:07;30.50;37.70
75517;DHT22;64097;52.548;13.406;2023-06-22T12:27:37;30.50;37.60
75517;DHT22;64097;52.548;13.406;2023-06-22T12:30:03;30.60;37.60
75517;DHT22;64097;52.548;13.406;2023-06-22T12:32:33;30.60;37.50
75517;DHT22;64097;52.548;13.406;2023-06-22T12:34:59;30.60;37.60
75517;DHT22;64097;52.548;13.406;2023-06-22T12:37:25;30.60;37.50
75517;DHT22;64097;52.548;13.406;2023-06-22T12:39:50;30.60;37.60
75517;DHT22;64097;52.548;13.406;2023-06-22T12:42:16;30.60;37.40
75517;DHT22;64097;52.548;13.406;2023-06-22T12:44:42;30.60;37.50
75517;DHT22;64097;52.548;13.406;2023-06-22T12:47:09;30.60;37.30
75517;DHT22;64097;52.548;13.406;2023-06-22T12:49:35;30.60;37.30
75517;DHT22;64097;52.548;13.406;2023-06-22T12:52:01;30.70;37.30
75517;DHT22;64097;52.548;13.406;2023-06-22T12:54:27;30.60;37.20
75517;DHT22;64097;52.548;13.406;2023-06-22T12:56:55;30.70;37.30
75517;DHT22;64097;52.548;13.406;2023-06-22T12:59:20;30.70;37.20
75517;DHT22;64097;52.548;13.406;2023-06-22T13:01:46;30.70;37.10
75517;DHT22;64097;52.548;13.406;2023-06-22T13:04:12;30.70;37.40
75517;DHT22;64097;52.548;13.406;2023-06-22T13:06:41;30.70;37.30
75517;DHT22;64097;52.548;13.406;2023-06-22T13:09:07;30.70;37.20
75517;DHT22;64097;52.548;13.406;2023-06-22T13:11:32;30.70;37.40
75517;DHT22;64097;52.548;13.406;2023-06-22T13:13:58;30.70;37.60
75517;DHT22;64097;52.548;13.406;2023-06-22T13:16:23;30.70;37.40
75517;DHT22;64097;52.548;13.406;2023-06-22T13:18:49;30.70;37.20
75517;DHT22;64097;52.548;13.406;2023-06-22T13:21:15;30.80;37.30
75517;DHT22;64097;52.548;13.406;2023-06-22T13:23:41;30.80;37.40
75517;DHT22;64097;52.548;13.406;2023-06-22T13:26:07;30.80;37.40
75517;DHT22;64097;52.548;13.406;2023-06-22T13:28:33;30.90;37.30
75517;DHT22;64097;52.548;13.406;2023-06-22T13:30:58;30.90;37.00
75517;DHT22;64097;52.548;13.406;2023-06-22T13:33:24;31.00;37.20
75517;DHT22;64097;52.548;13.406;2023-06-22T13:35:50;31.00;37.10
75517;DHT22;64097;52.548;13.406;2023-06-22T13:38:16;31.00;37.00
75517;DHT22;64097;52.548;13.406;2023-06-22T13:40:42;31.00;36.90
75517;DHT22;64097;52.548;13.406;2023-06-22T13:43:08;31.00;37.00
75517;DHT22;64097;52.548;13.406;2023-06-22T13:45:34;31.00;37.10
75517;DHT22;64097;52.548;13.406;2023-06-22T13:48:00;31.00;37.10
75517;DHT22;64097;52.548;13.406;2023-06-22T13:50:25;31.10;37.00
75517;DHT22;64097;52.548;13.406;2023-06-22T13:52:51;31.00;37.10
75517;DHT22;64097;52.548;13.406;2023-06-22T13:55:17;31.10;37.20
75517;DHT22;64097;52.548;13.406;2023-06-22T13:57:43;31.10;37.20
